sensor_id;sensor_type;location;lat;lon;timestamp;P1;durP1;ratioP1;P2;durP2;ratioP2
40170;SDS011;37650;52.790;18.268;2023-01-26T00:00:07;79.50;;;38.30;;
40170;SDS011;37650;52.790;18.268;2023-01-26T00:03:49;66.30;;;31.80;;
40170;SDS011;37650;52.790;18.268;2023-01-26T00:10:34;111.20;;;61.20;;
40170;SDS011;37650;52.790;18.268;2023-01-26T00:13:57;87.40;;;47.60;;
40170;SDS011;37650;52.790;18.268;2023-01-26T00:17:20;88.70;;;43.70;;
40170;SDS011;37650;52.790;18.268;2023-01-26T00:20:46;82.30;;;40.90;;
40170;SDS011;37650;52.790;18.268;2023-01-26T00:24:08;66.90;;;32.40;;
40170;SDS011;37650;52.790;18.268;2023-01-26T00:27:33;69.60;;;34.60;;
40170;SDS011;37650;52.790;18.268;2023-01-26T00:31:01;77.30;;;38.70;;
40170;SDS011;37650;52.790;18.268;2023-01-26T00:34:24;61.00;;;32.90;;
40170;SDS011;37650;52.790;18.268;2023-01-26T00:37:45;75.90;;;37.30;;
40170;SDS011;37650;52.790;18.268;2023-01-26T00:41:09;74.50;;;39.30;;
40170;SDS011;37650;52.790;18.268;2023-01-26T00:44:53;72.90;;;37.00;;
40170;SDS011;37650;52.790;18.268;2023-01-26T00:48:15;73.40;;;39.20;;
40170;SDS011;37650;52.790;18.268;2023-01-26T00:51:36;77.60;;;43.70;;
40170;SDS011;37650;52.790;18.268;2023-01-26T00:54:58;93.90;;;48.00;;
40170;SDS011;37650;52.790;18.268;2023-01-26T00:58:19;81.30;;;41.40;;
40170;SDS011;37650;52.790;18.268;2023-01-26T01:01:40;86.10;;;40.10;;
40170;SDS011;37650;52.790;18.268;2023-01-26T01:05:01;83.20;;;38.30;;
40170;SDS011;37650;52.790;18.268;2023-01-26T01:08:23;79.60;;;37.50;;
40170;SDS011;37650;52.790;18.268;2023-01-26T01:11:44;67.30;;;33.30;;
40170;SDS011;37650;52.790;18.268;2023-01-26T01:15:05;71.20;;;32.60;;
40170;SDS011;37650;52.790;18.268;2023-01-26T01:21:48;82.10;;;37.60;;
40170;SDS011;37650;52.790;18.268;2023-01-26T01:25:09;84.50;;;38.30;;
40170;SDS011;37650;52.790;18.268;2023-01-26T01:28:31;80.00;;;37.80;;
40170;SDS011;37650;52.790;18.268;2023-01-26T01:31:54;78.60;;;37.60;;
40170;SDS011;37650;52.790;18.268;2023-01-26T01:35:15;90.70;;;42.40;;
40170;SDS011;37650;52.790;18.268;2023-01-26T01:38:36;89.00;;;41.40;;
40170;SDS011;37650;52.790;18.268;2023-01-26T01:41:58;88.90;;;39.60;;
40170;SDS011;37650;52.790;18.268;2023-01-26T01:48:56;83.90;;;38.90;;
40170;SDS011;37650;52.790;18.268;2023-01-26T01:52:23;92.40;;;41.60;;
40170;SDS011;37650;52.790;18.268;2023-01-26T01:55:50;98.70;;;44.80;;
40170;SDS011;37650;52.790;18.268;2023-01-26T01:59:16;92.50;;;44.10;;
40170;SDS011;37650;52.790;18.268;2023-01-26T02:02:45;71.70;;;35.30;;
40170;SDS011;37650;52.790;18.268;2023-01-26T02:06:32;84.80;;;37.70;;
40170;SDS011;37650;52.790;18.268;2023-01-26T02:09:58;84.60;;;40.80;;
40170;SDS011;37650;52.790;18.268;2023-01-26T02:13:40;97.70;;;42.50;;
40170;SDS011;37650;52.790;18.268;2023-01-26T02:17:04;87.60;;;45.00;;
40170;SDS011;37650;52.790;18.268;2023-01-26T02:20:31;93.70;;;41.40;;
40170;SDS011;37650;52.790;18.268;2023-01-26T02:24:25;73.50;;;36.00;;
40170;SDS011;37650;52.790;18.268;2023-01-26T02:27:53;72.70;;;37.40;;
40170;SDS011;37650;52.790;18.268;2023-01-26T02:31:15;74.90;;;38.20;;
40170;SDS011;37650;52.790;18.268;2023-01-26T02:34:39;81.90;;;41.00;;
40170;SDS011;37650;52.790;18.268;2023-01-26T02:38:00;78.10;;;37.00;;
40170;SDS011;37650;52.790;18.268;2023-01-26T02:41:21;77.20;;;36.60;;
40170;SDS011;37650;52.790;18.268;2023-01-26T02:45:03;75.80;;;37.50;;
40170;SDS011;37650;52.790;18.268;2023-01-26T02:48:25;68.30;;;35.20;;
40170;SDS011;37650;52.790;18.268;2023-01-26T02:52:05;73.70;;;35.00;;
40170;SDS011;37650;52.790;18.268;2023-01-26T02:55:27;71.10;;;36.10;;
40170;SDS011;37650;52.790;18.268;2023-01-26T02:58:48;67.60;;;36.50;;
40170;SDS011;37650;52.790;18.268;2023-01-26T03:02:10;68.10;;;35.90;;
40170;SDS011;37650;52.790;18.268;2023-01-26T03:05:32;76.00;;;36.30;;
40170;SDS011;37650;52.790;18.268;2023-01-26T03:08:53;75.20;;;37.30;;
40170;SDS011;37650;52.790;18.268;2023-01-26T03:12:16;75.50;;;35.10;;
40170;SDS011;37650;52.790;18.268;2023-01-26T03:15:37;82.90;;;38.40;;
40170;SDS011;37650;52.790;18.268;2023-01-26T03:19:13;66.20;;;32.70;;
40170;SDS011;37650;52.790;18.268;2023-01-26T03:22:59;83.90;;;39.80;;
40170;SDS011;37650;52.790;18.268;2023-01-26T03:26:39;74.90;;;36.40;;
40170;SDS011;37650;52.790;18.268;2023-01-26T03:30:19;80.40;;;39.00;;
40170;SDS011;37650;52.790;18.268;2023-01-26T03:33:41;79.60;;;37.90;;
40170;SDS011;37650;52.790;18.268;2023-01-26T03:37:03;74.90;;;38.60;;
40170;SDS011;37650;52.790;18.268;2023-01-26T03:40:56;69.40;;;33.70;;
40170;SDS011;37650;52.790;18.268;2023-01-26T03:44:36;70.80;;;34.70;;
40170;SDS011;37650;52.790;18.268;2023-01-26T03:48:16;57.10;;;28.30;;
40170;SDS011;37650;52.790;18.268;2023-01-26T03:51:58;66.90;;;32.40;;
40170;SDS011;37650;52.790;18.268;2023-01-26T03:55:38;67.00;;;32.00;;
40170;SDS011;37650;52.790;18.268;2023-01-26T03:59:18;73.70;;;35.60;;
40170;SDS011;37650;52.790;18.268;2023-01-26T04:02:58;69.20;;;33.00;;
40170;SDS011;37650;52.790;18.268;2023-01-26T04:06:40;75.80;;;34.90;;
40170;SDS011;37650;52.790;18.268;2023-01-26T04:13:44;82.10;;;35.30;;
40170;SDS011;37650;52.790;18.268;2023-01-26T04:17:26;68.80;;;34.30;;
40170;SDS011;37650;52.790;18.268;2023-01-26T04:21:07;77.40;;;37.90;;
40170;SDS011;37650;52.790;18.268;2023-01-26T04:24:47;76.60;;;36.40;;
40170;SDS011;37650;52.790;18.268;2023-01-26T04:28:08;75.00;;;34.40;;
40170;SDS011;37650;52.790;18.268;2023-01-26T04:31:30;77.30;;;36.20;;
40170;SDS011;37650;52.790;18.268;2023-01-26T04:34:52;66.20;;;31.60;;
40170;SDS011;37650;52.790;18.268;2023-01-26T04:38:16;66.30;;;33.30;;
40170;SDS011;37650;52.790;18.268;2023-01-26T04:41:38;85.30;;;38.50;;
40170;SDS011;37650;52.790;18.268;2023-01-26T04:45:03;90.20;;;39.60;;
40170;SDS011;37650;52.790;18.268;2023-01-26T04:48:25;80.90;;;37.30;;
40170;SDS011;37650;52.790;18.268;2023-01-26T04:51:48;80.30;;;38.50;;
40170;SDS011;37650;52.790;18.268;2023-01-26T04:55:10;78.00;;;38.80;;
40170;SDS011;37650;52.790;18.268;2023-01-26T04:58:32;73.90;;;34.80;;
40170;SDS011;37650;52.790;18.268;2023-01-26T05:01:55;62.30;;;31.60;;
40170;SDS011;37650;52.790;18.268;2023-01-26T05:05:17;78.20;;;34.30;;
40170;SDS011;37650;52.790;18.268;2023-01-26T05:08:38;63.70;;;32.50;;
40170;SDS011;37650;52.790;18.268;2023-01-26T05:11:59;73.20;;;34.70;;
40170;SDS011;37650;52.790;18.268;2023-01-26T05:16:01;81.70;;;41.10;;
40170;SDS011;37650;52.790;18.268;2023-01-26T05:19:46;107.30;;;51.60;;
40170;SDS011;37650;52.790;18.268;2023-01-26T05:23:14;87.70;;;42.80;;
40170;SDS011;37650;52.790;18.268;2023-01-26T05:26:54;92.80;;;44.60;;
40170;SDS011;37650;52.790;18.268;2023-01-26T05:30:36;89.10;;;44.80;;
40170;SDS011;37650;52.790;18.268;2023-01-26T05:33:57;98.10;;;48.30;;
40170;SDS011;37650;52.790;18.268;2023-01-26T05:37:19;102.60;;;50.30;;
40170;SDS011;37650;52.790;18.268;2023-01-26T05:40:40;101.80;;;52.90;;
40170;SDS011;37650;52.790;18.268;2023-01-26T05:44:01;110.70;;;52.90;;
40170;SDS011;37650;52.790;18.268;2023-01-26T05:47:32;101.40;;;49.10;;
40170;SDS011;37650;52.790;18.268;2023-01-26T05:50:54;95.90;;;43.60;;
40170;SDS011;37650;52.790;18.268;2023-01-26T05:54:17;79.20;;;37.30;;
40170;SDS011;37650;52.790;18.268;2023-01-26T05:57:38;85.40;;;41.50;;
40170;SDS011;37650;52.790;18.268;2023-01-26T06:01:04;85.00;;;38.60;;
40170;SDS011;37650;52.790;18.268;2023-01-26T06:04:27;84.50;;;39.90;;
40170;SDS011;37650;52.790;18.268;2023-01-26T06:07:51;90.60;;;45.00;;
40170;SDS011;37650;52.790;18.268;2023-01-26T06:11:19;90.30;;;41.80;;
40170;SDS011;37650;52.790;18.268;2023-01-26T06:14:50;92.60;;;44.40;;
40170;SDS011;37650;52.790;18.268;2023-01-26T06:18:12;88.90;;;43.00;;
40170;SDS011;37650;52.790;18.268;2023-01-26T06:21:36;96.30;;;42.30;;
40170;SDS011;37650;52.790;18.268;2023-01-26T06:24:57;84.80;;;42.90;;
40170;SDS011;37650;52.790;18.268;2023-01-26T06:28:19;109.60;;;50.70;;
40170;SDS011;37650;52.790;18.268;2023-01-26T06:31:40;91.30;;;43.30;;
40170;SDS011;37650;52.790;18.268;2023-01-26T06:35:01;97.00;;;44.20;;
40170;SDS011;37650;52.790;18.268;2023-01-26T06:38:23;95.00;;;43.70;;
40170;SDS011;37650;52.790;18.268;2023-01-26T06:41:44;84.30;;;42.30;;
40170;SDS011;37650;52.790;18.268;2023-01-26T06:45:06;96.70;;;45.30;;
40170;SDS011;37650;52.790;18.268;2023-01-26T06:48:28;98.20;;;43.60;;
40170;SDS011;37650;52.790;18.268;2023-01-26T06:51:57;97.50;;;44.80;;
40170;SDS011;37650;52.790;18.268;2023-01-26T06:55:37;78.30;;;37.90;;
40170;SDS011;37650;52.790;18.268;2023-01-26T06:59:39;90.30;;;40.00;;
40170;SDS011;37650;52.790;18.268;2023-01-26T07:03:16;93.10;;;39.60;;
40170;SDS011;37650;52.790;18.268;2023-01-26T07:06:37;94.30;;;42.80;;
40170;SDS011;37650;52.790;18.268;2023-01-26T07:09:58;81.10;;;40.20;;
40170;SDS011;37650;52.790;18.268;2023-01-26T07:13:19;83.70;;;39.50;;
40170;SDS011;37650;52.790;18.268;2023-01-26T07:16:41;108.00;;;54.90;;
40170;SDS011;37650;52.790;18.268;2023-01-26T07:20:03;109.00;;;52.30;;
40170;SDS011;37650;52.790;18.268;2023-01-26T07:23:24;92.80;;;45.90;;
40170;SDS011;37650;52.790;18.268;2023-01-26T07:26:45;102.40;;;45.80;;
40170;SDS011;37650;52.790;18.268;2023-01-26T07:30:22;101.70;;;46.60;;
40170;SDS011;37650;52.790;18.268;2023-01-26T07:34:08;105.70;;;44.30;;
40170;SDS011;37650;52.790;18.268;2023-01-26T07:37:29;126.80;;;58.80;;
40170;SDS011;37650;52.790;18.268;2023-01-26T07:40:51;110.00;;;53.00;;
40170;SDS011;37650;52.790;18.268;2023-01-26T07:44:12;122.60;;;56.00;;
40170;SDS011;37650;52.790;18.268;2023-01-26T07:47:33;118.80;;;53.70;;
40170;SDS011;37650;52.790;18.268;2023-01-26T07:50:58;106.20;;;47.20;;
40170;SDS011;37650;52.790;18.268;2023-01-26T07:54:23;98.30;;;42.80;;
40170;SDS011;37650;52.790;18.268;2023-01-26T07:57:47;91.00;;;41.20;;
40170;SDS011;37650;52.790;18.268;2023-01-26T08:01:10;78.00;;;35.90;;
40170;SDS011;37650;52.790;18.268;2023-01-26T08:04:33;93.40;;;41.60;;
40170;SDS011;37650;52.790;18.268;2023-01-26T08:07:59;87.70;;;44.10;;
40170;SDS011;37650;52.790;18.268;2023-01-26T08:11:21;84.00;;;37.60;;
40170;SDS011;37650;52.790;18.268;2023-01-26T08:14:43;84.20;;;38.90;;
40170;SDS011;37650;52.790;18.268;2023-01-26T08:18:06;77.10;;;37.50;;
40170;SDS011;37650;52.790;18.268;2023-01-26T08:21:27;86.40;;;39.50;;
40170;SDS011;37650;52.790;18.268;2023-01-26T08:24:48;81.90;;;37.80;;
40170;SDS011;37650;52.790;18.268;2023-01-26T08:28:09;83.90;;;38.60;;
40170;SDS011;37650;52.790;18.268;2023-01-26T08:31:30;93.50;;;38.40;;
40170;SDS011;37650;52.790;18.268;2023-01-26T08:34:53;99.70;;;45.60;;
40170;SDS011;37650;52.790;18.268;2023-01-26T08:38:14;92.20;;;44.70;;
40170;SDS011;37650;52.790;18.268;2023-01-26T08:41:35;83.20;;;35.80;;
40170;SDS011;37650;52.790;18.268;2023-01-26T08:44:56;78.10;;;37.00;;
40170;SDS011;37650;52.790;18.268;2023-01-26T08:48:17;92.90;;;42.00;;
40170;SDS011;37650;52.790;18.268;2023-01-26T08:51:38;90.20;;;40.20;;
40170;SDS011;37650;52.790;18.268;2023-01-26T08:55:00;96.90;;;47.70;;
40170;SDS011;37650;52.790;18.268;2023-01-26T08:58:24;91.10;;;40.70;;
40170;SDS011;37650;52.790;18.268;2023-01-26T09:01:46;90.90;;;40.40;;
40170;SDS011;37650;52.790;18.268;2023-01-26T09:05:08;82.60;;;38.80;;
40170;SDS011;37650;52.790;18.268;2023-01-26T09:08:30;86.70;;;38.50;;
40170;SDS011;37650;52.790;18.268;2023-01-26T09:11:53;91.30;;;47.40;;
40170;SDS011;37650;52.790;18.268;2023-01-26T09:15:16;91.60;;;42.00;;
40170;SDS011;37650;52.790;18.268;2023-01-26T09:18:37;105.80;;;43.00;;
40170;SDS011;37650;52.790;18.268;2023-01-26T09:21:58;88.80;;;40.40;;
40170;SDS011;37650;52.790;18.268;2023-01-26T09:25:18;108.50;;;54.80;;
40170;SDS011;37650;52.790;18.268;2023-01-26T09:28:39;96.80;;;44.70;;
40170;SDS011;37650;52.790;18.268;2023-01-26T09:32:01;100.00;;;43.10;;
40170;SDS011;37650;52.790;18.268;2023-01-26T09:35:22;95.30;;;39.20;;
40170;SDS011;37650;52.790;18.268;2023-01-26T09:38:43;90.90;;;40.10;;
40170;SDS011;37650;52.790;18.268;2023-01-26T09:45:59;88.30;;;41.30;;
40170;SDS011;37650;52.790;18.268;2023-01-26T09:49:47;86.00;;;39.20;;
40170;SDS011;37650;52.790;18.268;2023-01-26T09:53:22;83.70;;;38.00;;
40170;SDS011;37650;52.790;18.268;2023-01-26T09:56:54;85.60;;;37.80;;
40170;SDS011;37650;52.790;18.268;2023-01-26T10:00:20;93.90;;;48.20;;
40170;SDS011;37650;52.790;18.268;2023-01-26T10:03:58;74.90;;;37.10;;
40170;SDS011;37650;52.790;18.268;2023-01-26T10:07:24;65.90;;;30.80;;
40170;SDS011;37650;52.790;18.268;2023-01-26T10:10:53;69.20;;;33.50;;
40170;SDS011;37650;52.790;18.268;2023-01-26T10:18:29;103.80;;;42.30;;
40170;SDS011;37650;52.790;18.268;2023-01-26T10:21:52;99.80;;;44.00;;
40170;SDS011;37650;52.790;18.268;2023-01-26T10:25:38;79.10;;;37.20;;
40170;SDS011;37650;52.790;18.268;2023-01-26T10:28:59;76.10;;;38.90;;
40170;SDS011;37650;52.790;18.268;2023-01-26T10:32:21;78.00;;;37.40;;
40170;SDS011;37650;52.790;18.268;2023-01-26T10:35:42;79.50;;;38.80;;
40170;SDS011;37650;52.790;18.268;2023-01-26T10:39:07;90.50;;;42.80;;
40170;SDS011;37650;52.790;18.268;2023-01-26T10:42:31;104.00;;;45.80;;
40170;SDS011;37650;52.790;18.268;2023-01-26T10:45:53;126.40;;;54.60;;
40170;SDS011;37650;52.790;18.268;2023-01-26T10:49:15;126.30;;;53.10;;
40170;SDS011;37650;52.790;18.268;2023-01-26T10:52:36;102.00;;;45.70;;
40170;SDS011;37650;52.790;18.268;2023-01-26T10:56:01;121.00;;;50.90;;
40170;SDS011;37650;52.790;18.268;2023-01-26T10:59:38;104.00;;;45.90;;
40170;SDS011;37650;52.790;18.268;2023-01-26T11:03:15;108.30;;;46.70;;
40170;SDS011;37650;52.790;18.268;2023-01-26T11:06:39;100.90;;;45.70;;
40170;SDS011;37650;52.790;18.268;2023-01-26T11:10:20;102.80;;;49.10;;
40170;SDS011;37650;52.790;18.268;2023-01-26T11:14:18;118.30;;;49.50;;
40170;SDS011;37650;52.790;18.268;2023-01-26T11:17:41;102.00;;;45.70;;
40170;SDS011;37650;52.790;18.268;2023-01-26T11:24:56;108.30;;;48.70;;
40170;SDS011;37650;52.790;18.268;2023-01-26T11:28:33;102.90;;;47.50;;
40170;SDS011;37650;52.790;18.268;2023-01-26T11:32:12;114.10;;;52.40;;
40170;SDS011;37650;52.790;18.268;2023-01-26T12:02:05;95.90;;;48.10;;
40170;SDS011;37650;52.790;18.268;2023-01-26T12:05:53;100.30;;;50.80;;
40170;SDS011;37650;52.790;18.268;2023-01-26T12:12:40;115.30;;;55.00;;
40170;SDS011;37650;52.790;18.268;2023-01-26T12:16:16;97.60;;;46.50;;
40170;SDS011;37650;52.790;18.268;2023-01-26T12:27:27;86.10;;;39.10;;
40170;SDS011;37650;52.790;18.268;2023-01-26T12:34:37;75.80;;;33.20;;
40170;SDS011;37650;52.790;18.268;2023-01-26T12:38:02;68.40;;;32.30;;
40170;SDS011;37650;52.790;18.268;2023-01-26T12:45:13;61.80;;;30.60;;
40170;SDS011;37650;52.790;18.268;2023-01-26T12:52:20;66.80;;;32.70;;
40170;SDS011;37650;52.790;18.268;2023-01-26T12:55:53;67.30;;;34.90;;
40170;SDS011;37650;52.790;18.268;2023-01-26T12:59:32;63.40;;;32.00;;
40170;SDS011;37650;52.790;18.268;2023-01-26T13:06:25;59.60;;;29.60;;
40170;SDS011;37650;52.790;18.268;2023-01-26T13:10:07;63.20;;;30.60;;
40170;SDS011;37650;52.790;18.268;2023-01-26T13:13:30;63.50;;;34.70;;
40170;SDS011;37650;52.790;18.268;2023-01-26T13:24:00;65.50;;;33.90;;
40170;SDS011;37650;52.790;18.268;2023-01-26T13:31:01;75.80;;;34.10;;
40170;SDS011;37650;52.790;18.268;2023-01-26T13:34:28;74.80;;;34.90;;
40170;SDS011;37650;52.790;18.268;2023-01-26T13:38:04;67.80;;;35.20;;
40170;SDS011;37650;52.790;18.268;2023-01-26T13:41:27;77.80;;;37.30;;
40170;SDS011;37650;52.790;18.268;2023-01-26T13:44:53;79.00;;;37.00;;
40170;SDS011;37650;52.790;18.268;2023-01-26T13:48:19;83.10;;;37.10;;
40170;SDS011;37650;52.790;18.268;2023-01-26T13:51:48;72.10;;;35.90;;
40170;SDS011;37650;52.790;18.268;2023-01-26T13:55:11;76.90;;;35.30;;
40170;SDS011;37650;52.790;18.268;2023-01-26T13:58:42;71.20;;;34.70;;
40170;SDS011;37650;52.790;18.268;2023-01-26T14:02:08;66.00;;;33.50;;
40170;SDS011;37650;52.790;18.268;2023-01-26T14:05:31;75.10;;;35.40;;
40170;SDS011;37650;52.790;18.268;2023-01-26T14:08:54;67.00;;;32.70;;
40170;SDS011;37650;52.790;18.268;2023-01-26T14:15:42;83.60;;;35.40;;
40170;SDS011;37650;52.790;18.268;2023-01-26T14:19:04;79.40;;;39.80;;
40170;SDS011;37650;52.790;18.268;2023-01-26T14:22:29;65.50;;;33.60;;
40170;SDS011;37650;52.790;18.268;2023-01-26T14:25:57;78.10;;;37.20;;
40170;SDS011;37650;52.790;18.268;2023-01-26T14:29:22;70.90;;;35.40;;
40170;SDS011;37650;52.790;18.268;2023-01-26T14:32:46;74.40;;;33.30;;
40170;SDS011;37650;52.790;18.268;2023-01-26T14:36:17;75.30;;;35.10;;
40170;SDS011;37650;52.790;18.268;2023-01-26T14:43:07;76.70;;;33.20;;
40170;SDS011;37650;52.790;18.268;2023-01-26T14:50:14;90.00;;;42.90;;
40170;SDS011;37650;52.790;18.268;2023-01-26T14:53:48;88.50;;;38.80;;
40170;SDS011;37650;52.790;18.268;2023-01-26T14:57:15;108.80;;;51.00;;
40170;SDS011;37650;52.790;18.268;2023-01-26T15:00:40;93.80;;;42.30;;
40170;SDS011;37650;52.790;18.268;2023-01-26T15:04:05;117.30;;;57.50;;
40170;SDS011;37650;52.790;18.268;2023-01-26T15:07:46;115.40;;;60.20;;
40170;SDS011;37650;52.790;18.268;2023-01-26T15:11:24;90.70;;;41.50;;
40170;SDS011;37650;52.790;18.268;2023-01-26T15:15:12;87.00;;;41.70;;
40170;SDS011;37650;52.790;18.268;2023-01-26T15:18:33;82.50;;;38.40;;
40170;SDS011;37650;52.790;18.268;2023-01-26T15:21:54;82.10;;;35.60;;
40170;SDS011;37650;52.790;18.268;2023-01-26T15:25:17;90.30;;;35.70;;
40170;SDS011;37650;52.790;18.268;2023-01-26T15:28:49;76.10;;;32.70;;
40170;SDS011;37650;52.790;18.268;2023-01-26T15:32:25;85.40;;;40.80;;
40170;SDS011;37650;52.790;18.268;2023-01-26T15:35:55;103.10;;;50.10;;
40170;SDS011;37650;52.790;18.268;2023-01-26T15:39:18;95.70;;;40.30;;
40170;SDS011;37650;52.790;18.268;2023-01-26T15:46:01;90.70;;;42.60;;
40170;SDS011;37650;52.790;18.268;2023-01-26T15:49:22;90.40;;;41.50;;
40170;SDS011;37650;52.790;18.268;2023-01-26T15:52:44;96.90;;;39.80;;
40170;SDS011;37650;52.790;18.268;2023-01-26T15:56:10;81.70;;;36.80;;
40170;SDS011;37650;52.790;18.268;2023-01-26T15:59:33;96.80;;;41.10;;
40170;SDS011;37650;52.790;18.268;2023-01-26T16:02:54;79.00;;;33.90;;
40170;SDS011;37650;52.790;18.268;2023-01-26T16:06:26;77.80;;;34.00;;
40170;SDS011;37650;52.790;18.268;2023-01-26T16:09:49;96.00;;;40.40;;
40170;SDS011;37650;52.790;18.268;2023-01-26T16:13:13;95.40;;;43.00;;
40170;SDS011;37650;52.790;18.268;2023-01-26T16:16:38;103.90;;;45.00;;
40170;SDS011;37650;52.790;18.268;2023-01-26T16:19:59;119.40;;;53.00;;
40170;SDS011;37650;52.790;18.268;2023-01-26T16:23:24;123.50;;;52.60;;
40170;SDS011;37650;52.790;18.268;2023-01-26T16:26:48;131.60;;;50.50;;
40170;SDS011;37650;52.790;18.268;2023-01-26T16:30:09;119.50;;;48.70;;
40170;SDS011;37650;52.790;18.268;2023-01-26T16:33:30;106.40;;;45.30;;
40170;SDS011;37650;52.790;18.268;2023-01-26T16:36:52;122.00;;;48.50;;
40170;SDS011;37650;52.790;18.268;2023-01-26T16:40:14;120.00;;;53.00;;
40170;SDS011;37650;52.790;18.268;2023-01-26T16:43:37;114.50;;;51.90;;
40170;SDS011;37650;52.790;18.268;2023-01-26T16:47:02;110.90;;;50.90;;
40170;SDS011;37650;52.790;18.268;2023-01-26T16:50:25;99.90;;;48.90;;
40170;SDS011;37650;52.790;18.268;2023-01-26T16:53:46;89.80;;;38.60;;
40170;SDS011;37650;52.790;18.268;2023-01-26T16:57:09;79.50;;;35.50;;
40170;SDS011;37650;52.790;18.268;2023-01-26T17:00:30;81.80;;;35.50;;
40170;SDS011;37650;52.790;18.268;2023-01-26T17:03:53;83.70;;;34.60;;
40170;SDS011;37650;52.790;18.268;2023-01-26T17:07:16;75.00;;;34.60;;
40170;SDS011;37650;52.790;18.268;2023-01-26T17:10:38;73.50;;;31.80;;
40170;SDS011;37650;52.790;18.268;2023-01-26T17:13:59;65.80;;;29.80;;
40170;SDS011;37650;52.790;18.268;2023-01-26T17:17:21;72.90;;;30.90;;
40170;SDS011;37650;52.790;18.268;2023-01-26T17:20:42;73.20;;;34.60;;
40170;SDS011;37650;52.790;18.268;2023-01-26T17:24:04;83.50;;;36.10;;
40170;SDS011;37650;52.790;18.268;2023-01-26T17:27:27;89.30;;;35.50;;
40170;SDS011;37650;52.790;18.268;2023-01-26T17:30:48;87.00;;;35.00;;
40170;SDS011;37650;52.790;18.268;2023-01-26T17:34:10;82.00;;;34.40;;
40170;SDS011;37650;52.790;18.268;2023-01-26T17:37:31;79.70;;;36.50;;
40170;SDS011;37650;52.790;18.268;2023-01-26T17:40:54;77.30;;;34.80;;
40170;SDS011;37650;52.790;18.268;2023-01-26T17:44:18;92.50;;;44.20;;
40170;SDS011;37650;52.790;18.268;2023-01-26T17:47:39;88.90;;;41.60;;
40170;SDS011;37650;52.790;18.268;2023-01-26T17:51:10;88.20;;;41.00;;
40170;SDS011;37650;52.790;18.268;2023-01-26T17:54:33;93.40;;;36.10;;
40170;SDS011;37650;52.790;18.268;2023-01-26T17:57:54;92.30;;;40.20;;
40170;SDS011;37650;52.790;18.268;2023-01-26T18:01:16;79.10;;;30.20;;
40170;SDS011;37650;52.790;18.268;2023-01-26T18:04:39;81.60;;;34.60;;
40170;SDS011;37650;52.790;18.268;2023-01-26T18:08:00;82.10;;;33.00;;
40170;SDS011;37650;52.790;18.268;2023-01-26T18:11:23;84.30;;;37.40;;
40170;SDS011;37650;52.790;18.268;2023-01-26T18:14:46;87.60;;;36.20;;
40170;SDS011;37650;52.790;18.268;2023-01-26T18:18:09;148.30;;;57.00;;
40170;SDS011;37650;52.790;18.268;2023-01-26T18:21:32;128.40;;;54.30;;
40170;SDS011;37650;52.790;18.268;2023-01-26T18:24:55;132.80;;;55.20;;
40170;SDS011;37650;52.790;18.268;2023-01-26T18:28:17;109.50;;;45.20;;
40170;SDS011;37650;52.790;18.268;2023-01-26T18:31:38;82.40;;;34.60;;
40170;SDS011;37650;52.790;18.268;2023-01-26T18:35:01;73.60;;;33.30;;
40170;SDS011;37650;52.790;18.268;2023-01-26T18:38:22;66.50;;;32.70;;
40170;SDS011;37650;52.790;18.268;2023-01-26T18:41:43;71.50;;;33.70;;
40170;SDS011;37650;52.790;18.268;2023-01-26T18:45:05;69.10;;;34.10;;
40170;SDS011;37650;52.790;18.268;2023-01-26T18:48:28;75.00;;;37.00;;
40170;SDS011;37650;52.790;18.268;2023-01-26T18:51:50;91.10;;;39.50;;
40170;SDS011;37650;52.790;18.268;2023-01-26T18:55:12;89.10;;;39.80;;
40170;SDS011;37650;52.790;18.268;2023-01-26T18:58:34;74.80;;;32.80;;
40170;SDS011;37650;52.790;18.268;2023-01-26T19:01:57;60.30;;;28.20;;
40170;SDS011;37650;52.790;18.268;2023-01-26T19:05:21;71.70;;;30.90;;
40170;SDS011;37650;52.790;18.268;2023-01-26T19:08:45;69.30;;;29.10;;
40170;SDS011;37650;52.790;18.268;2023-01-26T19:12:12;76.70;;;33.70;;
40170;SDS011;37650;52.790;18.268;2023-01-26T19:15:35;80.80;;;38.80;;
40170;SDS011;37650;52.790;18.268;2023-01-26T19:18:58;91.00;;;37.70;;
40170;SDS011;37650;52.790;18.268;2023-01-26T19:22:21;87.00;;;33.40;;
40170;SDS011;37650;52.790;18.268;2023-01-26T19:25:43;75.40;;;32.30;;
40170;SDS011;37650;52.790;18.268;2023-01-26T19:29:05;76.90;;;30.90;;
40170;SDS011;37650;52.790;18.268;2023-01-26T19:32:27;79.10;;;33.10;;
40170;SDS011;37650;52.790;18.268;2023-01-26T19:35:51;67.20;;;29.00;;
40170;SDS011;37650;52.790;18.268;2023-01-26T19:39:13;70.70;;;33.30;;
40170;SDS011;37650;52.790;18.268;2023-01-26T19:42:36;69.10;;;31.60;;
40170;SDS011;37650;52.790;18.268;2023-01-26T19:45:59;71.30;;;31.60;;
40170;SDS011;37650;52.790;18.268;2023-01-26T19:49:23;71.00;;;31.00;;
40170;SDS011;37650;52.790;18.268;2023-01-26T19:52:44;66.60;;;29.90;;
40170;SDS011;37650;52.790;18.268;2023-01-26T19:56:09;64.20;;;27.10;;
40170;SDS011;37650;52.790;18.268;2023-01-26T19:59:34;64.60;;;28.30;;
40170;SDS011;37650;52.790;18.268;2023-01-26T20:03:00;61.40;;;27.40;;
40170;SDS011;37650;52.790;18.268;2023-01-26T20:06:24;66.90;;;27.50;;
40170;SDS011;37650;52.790;18.268;2023-01-26T20:09:50;57.10;;;24.70;;
40170;SDS011;37650;52.790;18.268;2023-01-26T20:13:13;57.40;;;27.00;;
40170;SDS011;37650;52.790;18.268;2023-01-26T20:16:39;58.30;;;24.70;;
40170;SDS011;37650;52.790;18.268;2023-01-26T20:20:01;57.90;;;25.30;;
40170;SDS011;37650;52.790;18.268;2023-01-26T20:23:28;59.60;;;27.40;;
40170;SDS011;37650;52.790;18.268;2023-01-26T20:26:53;58.80;;;28.70;;
40170;SDS011;37650;52.790;18.268;2023-01-26T20:30:18;55.60;;;28.40;;
40170;SDS011;37650;52.790;18.268;2023-01-26T20:33:42;50.70;;;24.40;;
40170;SDS011;37650;52.790;18.268;2023-01-26T20:37:08;51.10;;;26.00;;
40170;SDS011;37650;52.790;18.268;2023-01-26T20:40:30;49.80;;;24.10;;
40170;SDS011;37650;52.790;18.268;2023-01-26T20:43:56;47.20;;;22.50;;
40170;SDS011;37650;52.790;18.268;2023-01-26T20:47:20;45.50;;;22.90;;
40170;SDS011;37650;52.790;18.268;2023-01-26T20:50:42;45.70;;;25.90;;
40170;SDS011;37650;52.790;18.268;2023-01-26T20:54:06;55.50;;;27.00;;
40170;SDS011;37650;52.790;18.268;2023-01-26T20:57:28;59.30;;;27.20;;
40170;SDS011;37650;52.790;18.268;2023-01-26T21:00:53;52.90;;;26.40;;
40170;SDS011;37650;52.790;18.268;2023-01-26T21:04:26;58.50;;;27.40;;
40170;SDS011;37650;52.790;18.268;2023-01-26T21:07:51;54.90;;;28.80;;
40170;SDS011;37650;52.790;18.268;2023-01-26T21:11:13;70.40;;;35.20;;
40170;SDS011;37650;52.790;18.268;2023-01-26T21:14:36;65.10;;;33.00;;
40170;SDS011;37650;52.790;18.268;2023-01-26T21:18:00;63.30;;;30.60;;
40170;SDS011;37650;52.790;18.268;2023-01-26T21:21:22;63.00;;;30.10;;
40170;SDS011;37650;52.790;18.268;2023-01-26T21:24:44;58.30;;;31.20;;